Time;durP1;ratioP1;P1;durP2;ratioP2;P2;SDS_P1;SDS_P2;PMS_P1;PMS_P2;Temp;Humidity;BMP_temperature;BMP_pressure;BME280_temperature;BME280_humidity;BME280_pressure;Samples;Min_cycle;Max_cycle;Signal;HPM_P1;HPM_P2
2022/02/24 00:01:04;;;;;;;11.02;6.45;;;;;;;5.38;59.95;99728.84;5007380;28;20081;-93
2022/02/24 00:03:33;;;;;;;14.63;7.40;;;;;;;5.25;62.46;99741.06;5007918;28;20061;-94
2022/02/24 00:05:59;;;;;;;17.03;7.47;;;;;;;4.95;63.75;99737.22;5007951;28;20089;-93
2022/02/24 00:08:26;;;;;;;8.20;5.00;;;;;;;4.67;64.65;99729.00;5007576;28;20067;-94
2022/02/24 00:10:53;;;;;;;8.15;5.22;;;;;;;4.61;64.91;99733.31;5007593;28;20049;-93
2022/02/24 00:13:19;;;;;;;7.95;5.68;;;;;;;4.50;65.07;99736.69;5008075;28;20137;-94
2022/02/24 00:15:45;;;;;;;8.80;5.22;;;;;;;4.66;65.58;99774.66;5007161;28;20062;-94
2022/02/24 00:18:11;;;;;;;9.60;5.43;;;;;;;4.38;66.33;99740.91;5007949;28;20089;-94
2022/02/24 00:20:37;;;;;;;10.75;5.78;;;;;;;4.44;66.30;99756.78;5007888;28;20050;-93
2022/02/24 00:23:04;;;;;;;11.30;5.55;;;;;;;4.39;64.76;99737.44;5008157;28;20054;-92
2022/02/24 00:25:32;;;;;;;9.80;5.80;;;;;;;4.42;65.16;99738.31;5007560;28;20046;-94
2022/02/24 00:27:58;;;;;;;14.05;6.28;;;;;;;4.39;66.36;99743.56;5007417;28;20058;-94
2022/02/24 00:30:24;;;;;;;12.85;7.60;;;;;;;4.24;67.91;99752.13;5007467;28;20050;-92
2022/02/24 00:32:50;;;;;;;17.35;9.35;;;;;;;4.16;68.92;99772.19;5007495;28;20049;-93
2022/02/24 00:35:16;;;;;;;18.95;10.90;;;;;;;3.94;69.18;99754.31;5008291;28;20058;-94
2022/02/24 00:37:42;;;;;;;12.20;6.88;;;;;;;3.95;67.90;99756.97;5006211;28;20050;-94
2022/02/24 00:40:09;;;;;;;8.88;6.40;;;;;;;4.02;67.72;99757.97;5005991;28;20073;-95
2022/02/24 00:42:38;;;;;;;10.93;6.93;;;;;;;4.22;67.38;99785.44;5007425;28;20047;-93
2022/02/24 00:45:05;;;;;;;10.43;6.10;;;;;;;3.94;68.31;99744.66;5006402;28;20392;-92
2022/02/24 00:47:31;;;;;;;10.90;6.53;;;;;;;3.89;68.71;99762.16;5007749;28;20050;-94
2022/02/24 00:49:57;;;;;;;11.55;6.90;;;;;;;3.68;70.52;99750.41;5008021;28;20070;-93
2022/02/24 00:52:23;;;;;;;15.57;8.23;;;;;;;3.75;72.20;99790.84;5007465;28;20046;-94
2022/02/24 00:54:49;;;;;;;13.52;8.02;;;;;;;3.38;73.42;99763.91;5007546;28;20039;-94
2022/02/24 00:57:16;;;;;;;15.80;8.98;;;;;;;3.28;74.46;99777.78;5006364;28;20050;-93
2022/02/24 00:59:43;;;;;;;12.63;7.72;;;;;;;3.19;74.57;99780.19;5006808;28;20496;-94
2022/02/24 01:02:10;;;;;;;12.20;6.82;;;;;;;3.23;73.42;99779.41;5009254;28;20069;-94
2022/02/24 01:04:36;;;;;;;11.70;6.55;;;;;;;3.03;73.40;99751.00;5008362;28;20057;-93
2022/02/24 01:07:03;;;;;;;12.98;6.78;;;;;;;3.13;72.58;99759.97;5011262;28;20042;-92
2022/02/24 01:09:29;;;;;;;14.10;7.65;;;;;;;3.20;72.66;99760.97;5009402;28;20046;-94
2022/02/24 01:11:55;;;;;;;13.15;7.75;;;;;;;3.28;72.12;99762.88;5005874;28;20455;-94
2022/02/24 01:14:21;;;;;;;12.82;7.82;;;;;;;3.32;72.09;99749.78;5009772;28;20039;-94
2022/02/24 01:16:49;;;;;;;12.77;6.93;;;;;;;3.35;71.87;99758.63;5011101;28;20075;-93
2022/02/24 01:19:15;;;;;;;12.00;7.30;;;;;;;3.40;71.92;99763.94;5010951;28;20038;-93
2022/02/24 01:21:41;;;;;;;11.20;6.75;;;;;;;3.31;73.07;99746.25;5011331;28;20074;-94
2022/02/24 01:24:07;;;;;;;13.07;7.00;;;;;;;3.39;73.32;99756.94;5011161;28;20066;-94
2022/02/24 01:26:33;;;;;;;11.63;7.22;;;;;;;3.23;74.14;99739.97;5010559;28;20057;-93
2022/02/24 01:28:59;;;;;;;12.82;7.10;;;;;;;3.28;74.08;99749.72;5010298;28;20074;-93
2022/02/24 01:31:26;;;;;;;12.77;7.07;;;;;;;3.26;73.77;99737.44;5009575;28;20045;-94
2022/02/24 01:33:53;;;;;;;14.77;7.63;;;;;;;3.73;69.82;99753.13;5007663;28;20050;-94
2022/02/24 01:36:20;;;;;;;15.25;8.73;;;;;;;3.87;68.72;99735.81;5001326;28;20044;-92
2022/02/24 01:38:46;;;;;;;13.65;7.72;;;;;;;4.08;67.97;99744.91;5003786;28;20061;-93
2022/02/24 01:41:12;;;;;;;12.95;8.98;;;;;;;4.11;67.48;99726.50;5001286;28;20061;-94
2022/02/24 01:43:42;;;;;;;13.75;7.88;;;;;;;4.33;66.40;99738.22;5001134;28;20129;-93
2022/02/24 01:46:08;;;;;;;16.48;8.07;;;;;;;4.43;65.76;99744.50;5001503;28;20056;-93
2022/02/24 01:48:34;;;;;;;11.55;7.60;;;;;;;4.45;65.57;99742.78;5001047;28;20460;-91
2022/02/24 01:51:02;;;;;;;12.23;7.28;;;;;;;4.29;65.28;99704.81;5001368;28;20042;-93
2022/02/24 01:53:28;;;;;;;11.57;7.82;;;;;;;4.51;64.55;99729.66;5001243;28;20498;-94
2022/02/24 01:55:54;;;;;;;15.98;8.27;;;;;;;4.46;64.00;99707.66;5001005;28;20069;-94
2022/02/24 01:58:22;;;;;;;16.33;6.95;;;;;;;4.42;64.43;99704.09;5008323;28;20069;-93
2022/02/24 02:00:48;;;;;;;12.85;8.57;;;;;;;4.36;64.83;99700.50;5002162;28;20038;-93
2022/02/24 02:03:14;;;;;;;12.30;7.38;;;;;;;4.28;65.54;99700.41;5005395;28;20460;-92
2022/02/24 02:05:40;;;;;;;13.82;7.75;;;;;;;4.19;66.22;99709.06;5007665;28;20058;-93
2022/02/24 02:08:08;;;;;;;15.40;8.57;;;;;;;4.09;66.76;99694.88;5005143;28;20568;-93
2022/02/24 02:10:35;;;;;;;14.48;8.23;;;;;;;4.08;67.07;99706.28;5008395;28;20047;-92
2022/02/24 02:13:01;;;;;;;12.50;8.10;;;;;;;3.73;68.99;99697.88;5008550;28;20085;-93
2022/02/24 02:15:27;;;;;;;13.20;8.02;;;;;;;3.44;70.03;99690.41;5005232;28;20441;-93
2022/02/24 02:17:53;;;;;;;14.27;8.50;;;;;;;3.27;70.81;99689.22;5006579;28;20054;-93
2022/02/24 02:20:20;;;;;;;14.40;8.20;;;;;;;3.39;70.89;99722.75;5008044;28;20046;-93
2022/02/24 02:22:49;;;;;;;13.20;8.00;;;;;;;3.15;72.96;99707.44;5008553;28;20097;-92
2022/02/24 02:25:19;;;;;;;14.73;7.82;;;;;;;3.15;73.80;99723.22;5007405;28;20046;-93
2022/02/24 02:27:46;;;;;;;12.45;7.80;;;;;;;2.96;73.70;99699.22;5008544;28;20049;-93
2022/02/24 02:30:12;;;;;;;14.05;8.00;;;;;;;2.83;74.75;99705.97;5008418;28;20050;-91
2022/02/24 02:32:39;;;;;;;13.80;8.43;;;;;;;2.62;76.16;99695.97;5008109;28;20042;-94
2022/02/24 02:35:05;;;;;;;13.55;8.38;;;;;;;2.58;76.30;99687.97;5007593;28;20070;-93
2022/02/24 02:37:32;;;;;;;15.57;7.82;;;;;;;2.47;77.14;99696.53;5008209;28;20073;-91
2022/02/24 02:39:59;;;;;;;15.63;7.95;;;;;;;2.37;78.18;99697.19;5008403;28;20042;-93
2022/02/24 02:42:26;;;;;;;15.32;8.25;;;;;;;2.44;79.11;99730.59;5008221;28;20070;-92
2022/02/24 02:44:52;;;;;;;12.40;8.18;;;;;;;2.19;79.58;99692.47;5008105;28;20122;-92
2022/02/24 02:47:18;;;;;;;13.30;8.15;;;;;;;2.14;79.46;99701.94;5008178;28;20050;-92
2022/02/24 02:49:44;;;;;;;13.88;7.93;;;;;;;2.30;79.89;99732.06;5007906;28;20045;-93
2022/02/24 02:52:10;;;;;;;14.85;8.95;;;;;;;2.06;80.47;99698.28;5007806;28;20050;-92
2022/02/24 02:54:36;;;;;;;14.23;8.13;;;;;;;2.03;79.96;99703.44;5007460;28;20178;-92
2022/02/24 02:57:04;;;;;;;12.35;8.30;;;;;;;2.23;81.00;99748.50;5007992;28;20042;-92
2022/02/24 02:59:30;;;;;;;14.93;8.13;;;;;;;2.21;80.36;99745.84;5007879;28;20072;-94
2022/02/24 03:01:56;;;;;;;13.95;8.98;;;;;;;1.93;81.49;99704.09;5007292;28;20070;-94
2022/02/24 03:04:22;;;;;;;15.63;8.55;;;;;;;1.95;81.78;99723.38;5007638;28;20045;-93
2022/02/24 03:06:49;;;;;;;14.93;8.90;;;;;;;1.95;82.73;99734.78;5007461;28;20061;-93
2022/02/24 03:09:15;;;;;;;19.58;9.40;;;;;;;1.68;82.61;99711.41;5007701;28;20066;-92
2022/02/24 03:11:41;;;;;;;14.55;9.18;;;;;;;1.65;83.11;99706.09;5007886;28;20050;-91
2022/02/24 03:14:09;;;;;;;20.58;8.70;;;;;;;1.69;82.53;99707.91;5007056;28;20046;-94
2022/02/24 03:16:35;;;;;;;15.13;8.55;;;;;;;1.56;83.91;99701.53;5008023;28;20049;-91
2022/02/24 03:19:00;;;;;;;13.65;8.32;;;;;;;1.61;83.89;99731.34;5007472;28;20046;-92
2022/02/24 03:21:27;;;;;;;14.98;8.70;;;;;;;1.52;83.54;99710.16;5007055;28;20065;-92
2022/02/24 03:23:53;;;;;;;15.10;8.93;;;;;;;1.70;83.00;99735.94;5007160;28;20050;-92
2022/02/24 03:26:19;;;;;;;17.58;9.05;;;;;;;1.41;84.04;99704.66;5007696;28;20050;-92
2022/02/24 03:28:45;;;;;;;15.70;8.65;;;;;;;1.61;83.97;99736.59;5008170;28;20077;-94
2022/02/24 03:31:12;;;;;;;14.38;9.00;;;;;;;1.40;83.95;99710.72;5006643;28;20042;-93
2022/02/24 03:33:38;;;;;;;14.23;8.18;;;;;;;1.46;84.30;99720.50;5007148;28;20056;-94
2022/02/24 03:36:06;;;;;;;15.38;8.30;;;;;;;1.45;83.99;99713.47;5006934;28;20110;-93
2022/02/24 03:38:32;;;;;;;15.40;8.23;;;;;;;1.42;84.79;99714.28;5006934;28;20046;-92
2022/02/24 03:40:58;;;;;;;12.95;8.13;;;;;;;1.39;84.22;99714.22;5006936;28;20103;-92
2022/02/24 03:43:24;;;;;;;14.50;8.10;;;;;;;1.28;84.85;99707.81;5006683;28;20049;-93
2022/02/24 03:45:50;;;;;;;18.45;8.25;;;;;;;1.26;85.43;99709.53;5006512;28;20058;-93
2022/02/24 03:48:18;;;;;;;13.15;8.27;;;;;;;1.22;85.19;99708.53;5006025;28;20046;-91
2022/02/24 03:50:44;;;;;;;15.13;9.20;;;;;;;1.25;86.39;99714.72;5006026;28;20149;-92
2022/02/24 03:53:10;;;;;;;15.15;8.48;;;;;;;1.32;86.03;99706.16;5005722;28;20452;-93
2022/02/24 03:55:36;;;;;;;17.67;9.43;;;;;;;1.39;85.54;99718.56;5005155;28;20050;-93
2022/02/24 03:58:02;;;;;;;16.77;8.85;;;;;;;1.47;84.65;99724.00;5004473;28;20042;-92
2022/02/24 04:00:28;;;;;;;16.42;9.07;;;;;;;1.42;85.21;99727.38;5005760;28;20042;-93
2022/02/24 04:02:55;;;;;;;15.82;8.80;;;;;;;1.61;85.59;99733.09;5006612;28;20053;-92
2022/02/24 04:05:23;;;;;;;18.98;10.40;;;;;;;1.32;85.74;99698.28;5005427;28;20504;-94
2022/02/24 04:07:49;;;;;;;17.80;10.88;;;;;;;1.33;85.54;99697.44;5005468;28;20042;-92
2022/02/24 04:10:15;;;;;;;19.83;10.48;;;;;;;1.26;85.90;99691.19;5005890;28;20072;-92
2022/02/24 04:12:41;;;;;;;18.70;10.40;;;;;;;1.21;86.40;99687.53;5005722;28;20046;-92
2022/02/24 04:15:08;;;;;;;19.25;10.18;;;;;;;1.16;86.59;99691.78;5004288;28;20052;-93
2022/02/24 04:17:34;;;;;;;20.25;10.35;;;;;;;1.13;87.01;99695.22;5004832;28;20042;-93
2022/02/24 04:20:00;;;;;;;18.60;9.75;;;;;;;1.38;87.01;99728.16;5004680;28;20039;-92
2022/02/24 04:22:27;;;;;;;18.23;9.48;;;;;;;1.15;86.99;99698.75;5002858;28;20054;-93
2022/02/24 04:24:53;;;;;;;18.10;9.93;;;;;;;1.08;87.24;99688.06;5002610;28;20079;-92
2022/02/24 04:27:19;;;;;;;17.17;9.65;;;;;;;1.10;87.83;99684.63;5002807;28;20097;-90
2022/02/24 04:29:45;;;;;;;19.38;10.10;;;;;;;1.01;87.42;99682.66;5002621;28;20047;-95
2022/02/24 04:32:11;;;;;;;19.38;9.63;;;;;;;1.00;88.08;99690.50;5003805;28;20045;-95
2022/02/24 04:34:36;;;;;;;17.05;10.07;;;;;;;0.92;88.64;99685.06;5004564;28;20053;-94
2022/02/24 04:37:03;;;;;;;21.55;11.10;;;;;;;0.93;88.18;99680.69;5009068;28;20042;-92
2022/02/24 04:39:31;;;;;;;20.10;9.95;;;;;;;0.89;88.79;99686.69;5010449;28;20069;-92
2022/02/24 04:41:57;;;;;;;22.92;11.00;;;;;;;0.83;88.97;99682.22;5010413;28;20073;-93
2022/02/24 04:44:23;;;;;;;21.48;11.10;;;;;;;1.08;89.35;99716.88;5010362;28;20053;-95
2022/02/24 04:46:49;;;;;;;23.30;11.02;;;;;;;0.81;88.82;99670.81;5010570;28;20137;-95
2022/02/24 04:49:15;;;;;;;26.17;11.95;;;;;;;0.81;88.32;99686.53;5009154;28;20050;-94
2022/02/24 04:51:41;;;;;;;19.45;10.90;;;;;;;0.72;88.29;99676.69;5010477;28;20038;-93
2022/02/24 04:54:08;;;;;;;23.30;11.10;;;;;;;0.65;88.26;99679.06;5008483;28;20142;-93
2022/02/24 04:56:36;;;;;;;23.77;11.65;;;;;;;0.71;89.29;99692.34;5010385;28;20055;-94
2022/02/24 04:59:02;;;;;;;19.65;11.02;;;;;;;0.62;88.85;99685.13;5010186;28;20042;-93
2022/02/24 05:01:28;;;;;;;20.90;11.30;;;;;;;0.55;89.28;99678.84;5010703;28;20132;-93
2022/02/24 05:03:55;;;;;;;24.52;11.43;;;;;;;0.49;89.74;99683.03;5010167;28;20076;-94
2022/02/24 05:06:21;;;;;;;20.90;11.65;;;;;;;0.54;90.19;99695.41;5010125;28;20081;-94
2022/02/24 05:08:47;;;;;;;22.35;10.85;;;;;;;0.45;89.85;99687.25;5009942;28;20042;-92
2022/02/24 05:11:13;;;;;;;19.63;10.80;;;;;;;0.54;89.51;99711.09;5009994;28;20043;-93
2022/02/24 05:13:40;;;;;;;22.40;11.75;;;;;;;0.36;89.88;99689.63;5009820;28;20050;-93
2022/02/24 05:16:06;;;;;;;22.33;11.60;;;;;;;0.38;90.79;99706.25;5010816;28;20054;-93
2022/02/24 05:18:32;;;;;;;19.45;11.23;;;;;;;0.23;91.25;99683.16;5011170;28;20171;-93
2022/02/24 05:20:58;;;;;;;24.00;12.07;;;;;;;0.27;90.61;99690.25;5009515;28;20077;-93
2022/02/24 05:23:24;;;;;;;23.77;12.15;;;;;;;0.27;90.60;99687.63;5009626;28;20053;-92
2022/02/24 05:25:50;;;;;;;26.85;12.88;;;;;;;0.29;90.65;99699.03;5010048;28;20042;-92
2022/02/24 05:28:16;;;;;;;24.90;11.15;;;;;;;0.22;90.87;99698.78;5009763;28;20860;-92
2022/02/24 05:30:44;;;;;;;22.73;11.68;;;;;;;0.19;91.85;99703.09;5009698;28;20042;-93
2022/02/24 05:33:10;;;;;;;24.45;11.35;;;;;;;0.35;91.61;99721.88;5009478;28;20077;-94
2022/02/24 05:35:37;;;;;;;21.55;11.25;;;;;;;0.31;90.73;99722.63;5009595;28;20058;-93
2022/02/24 05:38:03;;;;;;;23.25;11.88;;;;;;;0.42;92.15;99738.66;5010398;28;20050;-94
2022/02/24 05:40:29;;;;;;;24.45;12.07;;;;;;;0.27;90.78;99710.31;5009841;28;20046;-92
2022/02/24 05:42:55;;;;;;;23.80;12.15;;;;;;;0.33;91.34;99719.22;5010165;28;20046;-94
2022/02/24 05:45:21;;;;;;;22.42;11.75;;;;;;;0.36;91.59;99728.88;5009312;28;20049;-93
2022/02/24 05:47:48;;;;;;;25.88;12.90;;;;;;;0.34;91.67;99720.09;5009082;28;20069;-93
2022/02/24 05:50:15;;;;;;;21.10;11.88;;;;;;;0.25;91.33;99714.59;5010255;28;20074;-92
2022/02/24 05:52:41;;;;;;;20.17;12.30;;;;;;;0.26;92.07;99711.13;5010250;28;20050;-92
2022/02/24 05:55:08;;;;;;;22.58;12.05;;;;;;;0.38;90.97;99732.44;5008870;28;20057;-93
2022/02/24 05:57:34;;;;;;;20.02;11.63;;;;;;;0.26;91.39;99700.66;5008130;28;20055;-93
2022/02/24 06:00:00;;;;;;;26.75;12.20;;;;;;;0.26;91.92;99701.56;5009269;28;20496;-93
2022/02/24 06:02:26;;;;;;;19.85;11.70;;;;;;;0.31;91.29;99714.78;5008863;28;20050;-93
2022/02/24 06:04:53;;;;;;;19.55;10.25;;;;;;;0.43;90.67;99741.28;5008504;28;20069;-93
2022/02/24 06:07:19;;;;;;;23.23;10.73;;;;;;;0.22;90.96;99704.03;5008268;28;20050;-93
2022/02/24 06:09:45;;;;;;;21.83;10.43;;;;;;;0.34;91.49;99714.84;5008241;28;20117;-93
2022/02/24 06:12:11;;;;;;;23.17;11.77;;;;;;;0.28;90.68;99714.69;5008447;28;20038;-94
2022/02/24 06:14:37;;;;;;;24.73;12.40;;;;;;;0.27;90.71;99716.41;5008350;28;20046;-92
2022/02/24 06:17:04;;;;;;;22.00;11.63;;;;;;;0.27;91.67;99715.53;5008394;28;20558;-93
2022/02/24 06:19:29;;;;;;;26.48;12.80;;;;;;;0.44;92.35;99748.31;5006840;28;20408;-93
2022/02/24 06:21:57;;;;;;;26.75;13.43;;;;;;;0.31;92.29;99714.78;5004845;28;20039;-94
2022/02/24 06:24:26;;;;;;;25.23;12.57;;;;;;;0.38;92.30;99735.91;5005756;28;20124;-92
2022/02/24 06:26:59;;;;;;;30.83;13.80;;;;;;;0.45;92.51;99725.63;5004636;28;20039;-93
2022/02/24 06:29:28;;;;;;;30.20;13.77;;;;;;;0.75;92.46;99752.69;5005889;28;20046;-93
2022/02/24 06:31:54;;;;;;;24.17;13.43;;;;;;;0.82;91.34;99751.13;5003341;28;20108;-93
2022/02/24 06:34:19;;;;;;;27.83;14.18;;;;;;;0.64;91.17;99713.97;5002258;28;20054;-92
2022/02/24 06:36:45;;;;;;;27.10;14.13;;;;;;;0.80;91.11;99731.84;5002186;28;20110;-94
2022/02/24 06:39:13;;;;;;;28.85;14.50;;;;;;;0.91;91.09;99730.44;5003381;28;20050;-93
2022/02/24 06:41:39;;;;;;;26.75;15.10;;;;;;;1.05;89.87;99724.69;5002039;28;20039;-93
2022/02/24 06:44:05;;;;;;;30.00;14.98;;;;;;;1.03;89.53;99717.66;5003566;28;20112;-94
2022/02/24 06:46:31;;;;;;;24.27;14.07;;;;;;;1.10;89.43;99710.84;5003870;28;20073;-92
2022/02/24 06:48:57;;;;;;;28.25;13.63;;;;;;;1.29;89.14;99727.91;5003952;28;20046;-94
2022/02/24 06:51:23;;;;;;;32.55;14.10;;;;;;;1.28;88.54;99714.78;5004412;28;20042;-93
2022/02/24 06:53:49;;;;;;;28.95;13.85;;;;;;;1.38;87.94;99716.78;5004689;28;20042;-94
2022/02/24 06:56:16;;;;;;;32.33;14.82;;;;;;;1.55;87.08;99735.56;5004151;28;20046;-94
2022/02/24 06:58:42;;;;;;;35.25;15.77;;;;;;;1.66;85.81;99706.97;5000239;28;20050;-94
2022/02/24 07:01:08;;;;;;;32.88;16.00;;;;;;;1.75;84.36;99717.69;5001022;28;20587;-94
2022/02/24 07:03:34;;;;;;;34.92;15.93;;;;;;;1.84;84.04;99707.38;5001366;28;20117;-94
2022/02/24 07:06:00;;;;;;;34.92;17.90;;;;;;;1.95;83.75;99705.94;4998541;28;20145;-94
2022/02/24 07:08:28;;;;;;;30.58;16.83;;;;;;;2.02;83.33;99704.31;5004428;28;20579;-94
2022/02/24 07:10:54;;;;;;;44.08;17.80;;;;;;;2.17;82.92;99701.13;5002130;28;20563;-93
2022/02/24 07:13:22;;;;;;;30.13;14.90;;;;;;;2.26;82.15;99702.22;5003348;28;20042;-95
2022/02/24 07:15:48;;;;;;;39.88;16.88;;;;;;;2.45;81.60;99714.00;5001689;28;20057;-94
2022/02/24 07:18:14;;;;;;;38.33;17.08;;;;;;;2.65;80.29;99701.25;5001116;28;20050;-93
2022/02/24 07:20:39;;;;;;;33.00;18.02;;;;;;;2.90;79.16;99709.59;5000105;28;20105;-93
2022/02/24 07:23:05;;;;;;;34.83;17.13;;;;;;;3.03;79.07;99724.72;5000603;28;20046;-94
2022/02/24 07:25:31;;;;;;;31.35;16.45;;;;;;;3.08;78.48;99707.31;5000841;28;20457;-95
2022/02/24 07:27:58;;;;;;;33.50;15.85;;;;;;;3.23;77.83;99706.72;4998734;28;20408;-93
2022/02/24 07:30:25;;;;;;;33.35;15.50;;;;;;;3.32;77.18;99706.00;5000492;28;20089;-94
2022/02/24 07:32:51;;;;;;;24.90;15.50;;;;;;;3.40;76.78;99698.22;4999739;28;20043;-95
2022/02/24 07:35:17;;;;;;;31.25;15.40;;;;;;;3.59;76.56;99721.31;4999580;28;20104;-95
2022/02/24 07:37:43;;;;;;;36.45;15.85;;;;;;;3.72;76.09;99711.00;4999537;28;20073;-94
2022/02/24 07:40:10;;;;;;;35.30;15.55;;;;;;;3.69;75.53;99685.56;4999907;28;20047;-93
2022/02/24 07:42:36;;;;;;;31.88;15.77;;;;;;;3.97;75.04;99712.25;4999527;28;20388;-95
2022/02/24 07:45:07;;;;;;;32.72;14.70;;;;;;;4.03;74.69;99697.44;5000938;28;20081;-94
2022/02/24 07:54:32;;;;;;;26.77;14.13;;;;;;;4.60;72.17;99700.81;4940996;29;20039;-94
2022/02/24 07:56:58;;;;;;;28.70;12.77;;;;;;;4.74;71.59;99691.31;4940010;29;20043;-95
2022/02/24 07:59:24;;;;;;;25.77;13.55;;;;;;;4.86;71.01;99682.66;4939533;29;20115;-95
2022/02/24 08:01:50;;;;;;;28.48;14.20;;;;;;;5.03;70.36;99689.84;4940726;29;20071;-94
2022/02/24 08:04:16;;;;;;;26.38;13.52;;;;;;;5.32;69.32;99705.97;4938700;29;20083;-94
2022/02/24 08:06:42;;;;;;;22.65;13.10;;;;;;;5.37;68.63;99680.50;4939617;29;20059;-93
2022/02/24 08:09:12;;;;;;;32.10;14.10;;;;;;;5.66;67.56;99693.03;4945777;29;20047;-95
2022/02/24 08:11:39;;;;;;;;;;;;;;;5.92;67.54;99706.41;4938738;29;20095;-94
2022/02/24 08:14:05;;;;;;;29.35;14.82;;;;;;;6.08;67.10;99697.75;4939783;29;19961;-96
2022/02/24 08:16:31;;;;;;;23.95;13.50;;;;;;;6.02;66.69;99654.59;4941140;29;20047;-95
2022/02/24 08:19:00;;;;;;;24.42;12.60;;;;;;;6.19;65.97;99652.06;4940717;29;20044;-95
2022/02/24 08:21:27;;;;;;;24.02;13.15;;;;;;;6.32;65.15;99648.59;4939392;29;20057;-94
2022/02/24 08:23:53;;;;;;;25.00;12.52;;;;;;;6.50;64.55;99647.78;4938820;29;20047;-95
2022/02/24 08:26:20;;;;;;;32.17;15.82;;;;;;;6.76;63.67;99661.06;4954943;28;20405;-95
2022/02/24 08:28:50;;;;;;;31.02;17.30;;;;;;;6.88;63.51;99652.28;4997987;28;20074;-94
2022/02/24 08:31:16;;;;;;;30.73;14.07;;;;;;;7.05;62.73;99647.00;4998507;28;20395;-94
2022/02/24 08:33:42;;;;;;;24.88;14.23;;;;;;;7.25;62.31;99660.28;4999515;28;20069;-95
2022/02/24 08:36:08;;;;;;;27.40;13.55;;;;;;;7.27;60.92;99632.06;5002509;28;20061;-95
2022/02/24 08:38:34;;;;;;;17.15;9.07;;;;;;;7.40;54.71;99623.22;4998511;28;20070;-94
2022/02/24 08:41:00;;;;;;;17.73;9.50;;;;;;;7.48;55.44;99637.34;4998592;28;20049;-96
2022/02/24 08:43:25;;;;;;;20.23;11.68;;;;;;;7.53;57.39;99647.94;4998490;28;20047;-95
2022/02/24 08:45:53;;;;;;;20.33;11.45;;;;;;;7.59;57.52;99637.34;4998302;28;20050;-94
2022/02/24 08:48:19;;;;;;;25.45;12.73;;;;;;;7.77;58.72;99633.78;4997673;28;20081;-95
2022/02/24 08:50:44;;;;;;;22.95;12.00;;;;;;;7.94;57.57;99628.44;4997346;28;20046;-94
2022/02/24 08:53:11;;;;;;;28.33;12.25;;;;;;;8.18;57.26;99641.59;4998865;28;20066;-95
2022/02/24 08:55:37;;;;;;;22.38;11.63;;;;;;;8.22;56.67;99626.59;4999024;28;20057;-94
2022/02/24 08:58:03;;;;;;;24.65;13.38;;;;;;;8.48;55.90;99654.75;5000217;28;20047;-94
2022/02/24 09:00:30;;;;;;;25.40;12.55;;;;;;;8.58;55.88;99656.50;4998281;28;20131;-95
2022/02/24 09:02:57;;;;;;;24.73;12.88;;;;;;;8.55;55.14;99637.97;4997455;28;20043;-95
2022/02/24 09:05:24;;;;;;;23.58;12.95;;;;;;;8.47;54.94;99639.75;4996809;28;20431;-95
2022/02/24 09:07:54;;;;;;;23.20;12.93;;;;;;;8.55;55.14;99630.88;4999762;28;20389;-94
2022/02/24 09:10:21;;;;;;;24.73;12.82;;;;;;;8.71;54.95;99630.78;4998455;28;20049;-95
2022/02/24 09:12:49;;;;;;;27.57;14.00;;;;;;;8.87;54.64;99639.53;4998629;28;20113;-95
2022/02/24 09:15:15;;;;;;;23.60;13.25;;;;;;;9.01;53.74;99629.72;4999237;28;20292;-96
2022/02/24 09:17:41;;;;;;;28.52;13.70;;;;;;;9.35;53.54;99648.94;4996551;28;20077;-95
2022/02/24 09:20:10;;;;;;;27.65;13.52;;;;;;;9.37;53.23;99633.00;4998378;28;20047;-96
2022/02/24 09:22:36;;;;;;;23.08;12.50;;;;;;;9.41;52.56;99605.50;4999667;28;20046;-94
2022/02/24 09:25:03;;;;;;;26.25;13.85;;;;;;;9.51;52.39;99603.66;5001476;28;20500;-94
2022/02/24 09:27:29;;;;;;;21.63;12.38;;;;;;;9.49;50.95;99598.38;5001207;28;20042;-95
2022/02/24 09:29:55;;;;;;;29.35;13.38;;;;;;;9.62;51.31;99601.78;5005407;28;20057;-95
2022/02/24 09:32:21;;;;;;;27.75;14.35;;;;;;;9.73;51.57;99593.72;5000318;28;20527;-95
2022/02/24 09:34:47;;;;;;;28.48;13.85;;;;;;;9.93;51.83;99602.38;4998997;28;20038;-95
2022/02/24 09:37:14;;;;;;;27.05;14.23;;;;;;;10.10;50.68;99595.97;5002983;28;20050;-96
2022/02/24 09:39:40;;;;;;;27.48;13.13;;;;;;;10.13;49.82;99582.63;5003321;28;20046;-95
2022/02/24 09:42:06;;;;;;;21.23;11.30;;;;;;;10.13;46.86;99598.56;5003097;28;20111;-95
2022/02/24 09:44:32;;;;;;;24.38;12.45;;;;;;;10.08;48.71;99577.34;5001014;28;20057;-94
2022/02/24 09:46:59;;;;;;;20.75;10.65;;;;;;;10.25;47.75;99580.69;5002943;28;20338;-95
2022/02/24 09:49:28;;;;;;;23.42;12.32;;;;;;;10.46;46.06;99584.00;5000172;28;20043;-96
2022/02/24 09:51:54;;;;;;;22.63;11.27;;;;;;;10.47;45.18;99568.06;5000388;28;20050;-95
2022/02/24 09:54:22;;;;;;;21.05;10.52;;;;;;;10.67;44.94;99593.47;5000001;28;20065;-95
2022/02/24 09:56:50;;;;;;;20.38;10.20;;;;;;;10.63;45.24;99558.06;5002144;28;20110;-96
2022/02/24 09:59:18;;;;;;;19.70;10.25;;;;;;;10.66;44.48;99557.13;5000605;28;20045;-96
2022/02/24 10:01:45;;;;;;;21.23;11.10;;;;;;;10.41;44.11;99557.50;5001132;28;20415;-95
2022/02/24 10:04:11;;;;;;;21.73;10.38;;;;;;;10.44;44.46;99562.75;5002817;28;20046;-95
2022/02/24 10:06:38;;;;;;;24.95;11.63;;;;;;;10.79;44.73;99584.44;4999196;28;20069;-95
2022/02/24 10:09:05;;;;;;;21.13;9.98;;;;;;;10.98;44.46;99569.06;5000383;28;20100;-96
2022/02/24 10:11:34;;;;;;;23.10;10.18;;;;;;;11.16;43.90;99550.13;4997550;28;20042;-94
2022/02/24 10:14:04;;;;;;;19.60;10.63;;;;;;;11.37;43.77;99566.66;4999991;28;20046;-95
2022/02/24 10:16:32;;;;;;;20.48;10.43;;;;;;;11.65;42.11;99573.22;5005518;28;20050;-95
2022/02/24 10:19:09;;;;;;;20.67;10.15;;;;;;;11.47;43.39;99545.16;5004573;28;20046;-96
2022/02/24 10:21:35;;;;;;;22.25;10.82;;;;;;;11.77;41.90;99552.59;5003214;28;20106;-95
2022/02/24 10:24:01;;;;;;;22.38;11.75;;;;;;;11.86;40.78;99557.72;5002688;28;20133;-94
2022/02/24 10:26:28;;;;;;;25.00;10.23;;;;;;;11.74;41.69;99532.22;5001488;28;20046;-94
2022/02/24 10:28:56;;;;;;;24.45;11.38;;;;;;;12.01;41.82;99537.91;5002190;28;20069;-95
2022/02/24 10:31:23;;;;;;;21.60;10.13;;;;;;;12.13;41.65;99535.88;5000555;28;20077;-96
2022/02/24 10:33:51;;;;;;;25.45;10.20;;;;;;;12.24;40.78;99538.31;5000780;28;20511;-95
2022/02/24 10:36:20;;;;;;;22.65;10.75;;;;;;;12.38;39.79;99553.13;5000410;28;20108;-95
2022/02/24 10:38:59;;;;;;;18.65;9.27;;;;;;;12.44;40.19;99548.53;4998664;28;20042;-94
2022/02/24 10:41:28;;;;;;;46.42;10.40;;;;;;;12.52;39.70;99541.25;4998613;28;20116;-95
2022/02/24 10:44:17;;;;;;;18.60;9.20;;;;;;;12.59;40.29;99525.09;4998154;28;20057;-94
2022/02/24 10:46:44;;;;;;;;;;;;;;;12.76;39.74;99538.94;4998333;28;20524;-96
2022/02/24 10:49:13;;;;;;;21.35;7.95;;;;;;;12.58;39.33;99504.66;4998032;28;19928;-94
2022/02/24 10:51:41;;;;;;;17.05;8.45;;;;;;;12.84;39.69;99514.75;4997433;28;20097;-94
2022/02/24 10:54:09;;;;;;;15.65;7.75;;;;;;;12.83;39.02;99497.81;4998946;28;20046;-94
2022/02/24 10:56:36;;;;;;;16.33;8.10;;;;;;;13.01;38.82;99514.31;4998194;28;20043;-96
2022/02/24 10:59:03;;;;;;;16.55;7.80;;;;;;;12.88;38.74;99487.03;4997819;28;20386;-94
2022/02/24 11:01:31;;;;;;;15.55;7.30;;;;;;;12.99;39.23;99482.31;4997823;28;20042;-95
2022/02/24 11:03:59;;;;;;;16.90;7.95;;;;;;;12.83;39.73;99481.81;4998321;28;20073;-94
2022/02/24 11:06:27;;;;;;;16.05;7.82;;;;;;;12.68;39.93;99475.06;4998841;28;20507;-95
2022/02/24 11:08:57;;;;;;;17.75;7.60;;;;;;;12.72;40.35;99458.06;4998727;28;20070;-95
2022/02/24 11:11:25;;;;;;;17.55;8.07;;;;;;;12.97;41.01;99481.47;4997875;28;20404;-96
2022/02/24 11:13:52;;;;;;;14.93;8.27;;;;;;;13.01;40.87;99474.25;4997052;28;20057;-94
2022/02/24 11:16:18;;;;;;;17.27;8.55;;;;;;;13.03;41.03;99459.06;4996594;28;20046;-96
2022/02/24 11:18:46;;;;;;;16.10;8.10;;;;;;;13.20;40.60;99470.19;4996379;28;20458;-94
2022/02/24 11:21:12;;;;;;;18.55;9.32;;;;;;;13.24;41.29;99465.66;4996891;28;20053;-93
2022/02/24 11:23:39;;;;;;;19.73;9.70;;;;;;;12.99;41.41;99447.63;4997109;28;20043;-95
2022/02/24 11:26:33;;;;;;;21.20;10.35;;;;;;;12.68;42.49;99464.38;4997555;28;20050;-93
2022/02/24 11:29:06;;;;;;;18.90;9.73;;;;;;;12.50;43.16;99423.03;4998538;28;20073;-93
2022/02/24 11:31:43;;;;;;;18.83;9.48;;;;;;;12.64;42.69;99436.03;4997821;28;20042;-96
2022/02/24 11:34:11;;;;;;;21.45;10.55;;;;;;;12.72;43.06;99412.69;5002244;28;20440;-95